Time,TemperatureF,DewpointF,PressureIn,WindDirection,WindDirectionDegrees,WindSpeedMPH,WindSpeedGustMPH,Humidity,HourlyPrecipIn,Conditions,Clouds,dailyrainin,SolarRadiationWatts/m^2,SoftwareType,DateUTC
2013-07-18 00:01:00,55.0,-99.9,-100.00,WSW,239,0.0,2.0,0,0.00,,,0.00,0.000000,,2013-07-18 07:01:00,
2013-07-18 00:32:00,54.0,-99.9,-100.00,SSW,192,0.0,0.0,0,0.00,,,0.00,0.000000,,2013-07-18 07:32:00,
2013-07-18 00:42:00,54.0,-99.9,-100.00,SSW,192,0.0,0.0,0,0.00,,,0.00,0.000000,,2013-07-18 07:42:00,
2013-07-18 00:52:00,54.0,-99.9,-100.00,SSW,192,0.0,0.0,0,0.00,,,0.00,0.000000,,2013-07-18 07:52:00,
2013-07-18 01:01:00,54.0,-99.9,-100.00,SSW,192,0.0,0.0,0,0.00,,,0.00,0.000000,,2013-07-18 08:01:00,
2013-07-18 03:22:00,54.0,-99.9,-100.00,South,171,3.0,6.0,0,-99.99,,,0.00,0.000000,,2013-07-18 10:22:00,
2013-07-18 03:32:00,54.0,-99.9,-100.00,South,171,3.0,6.0,0,-99.99,,,0.00,0.000000,,2013-07-18 10:32:00,
2013-07-18 03:43:00,54.0,-99.9,-100.00,South,171,3.0,6.0,0,-99.99,,,0.00,0.000000,,2013-07-18 10:43:00,
2013-07-18 03:52:00,54.0,-99.9,-100.00,South,171,3.0,6.0,0,-99.99,,,0.00,0.000000,,2013-07-18 10:52:00,
2013-07-18 04:01:00,54.0,-99.9,-100.00,South,171,3.0,6.0,0,-99.99,,,0.00,0.000000,,2013-07-18 11:01:00,
2013-07-18 04:22:00,53.0,-99.9,-100.00,ENE,72,0.0,6.0,0,0.00,,,0.00,0.000000,,2013-07-18 11:22:00,
2013-07-18 04:32:00,53.0,-99.9,-100.00,ENE,72,0.0,6.0,0,0.00,,,0.00,0.000000,,2013-07-18 11:32:00,
2013-07-18 04:43:00,53.0,-99.9,-100.00,ENE,72,0.0,6.0,0,0.00,,,0.00,0.000000,,2013-07-18 11:43:00,
2013-07-18 04:52:00,53.0,-99.9,-100.00,ENE,72,0.0,6.0,0,0.00,,,0.00,0.000000,,2013-07-18 11:52:00,
2013-07-18 05:02:00,53.0,-99.9,-100.00,ENE,72,0.0,6.0,0,0.00,,,0.00,0.000000,,2013-07-18 12:02:00,
2013-07-18 05:33:00,52.0,-99.9,-100.00,South,181,0.0,4.0,0,0.00,,,0.00,0.000000,,2013-07-18 12:33:00,
2013-07-18 05:42:00,52.0,-99.9,-100.00,South,181,0.0,4.0,0,0.00,,,0.00,0.000000,,2013-07-18 12:42:00,
2013-07-18 05:52:00,52.0,-99.9,-100.00,South,181,0.0,4.0,0,0.00,,,0.00,0.000000,,2013-07-18 12:52:00,
2013-07-18 06:01:00,52.0,-99.9,-100.00,South,181,0.0,4.0,0,0.00,,,0.00,0.000000,,2013-07-18 13:01:00,
2013-07-18 06:33:00,50.0,-99.9,-100.00,South,169,0.0,3.0,0,0.00,,,0.00,3.000000,,2013-07-18 13:33:00,
2013-07-18 06:43:00,50.0,-99.9,-100.00,South,169,0.0,3.0,0,0.00,,,0.00,3.000000,,2013-07-18 13:43:00,
2013-07-18 06:53:00,50.0,-99.9,-100.00,South,169,0.0,3.0,0,0.00,,,0.00,3.000000,,2013-07-18 13:53:00,
2013-07-18 07:02:00,50.0,-99.9,-100.00,South,169,0.0,3.0,0,0.00,,,0.00,3.000000,,2013-07-18 14:02:00,
2013-07-18 07:33:00,52.0,-99.9,-100.00,SE,132,0.0,3.0,0,0.00,,,0.00,42.000000,,2013-07-18 14:33:00,
2013-07-18 07:43:00,52.0,-99.9,-100.00,SE,132,0.0,3.0,0,0.00,,,0.00,42.000000,,2013-07-18 14:43:00,
2013-07-18 07:53:00,52.0,-99.9,-100.00,SE,132,0.0,3.0,0,0.00,,,0.00,42.000000,,2013-07-18 14:53:00,
2013-07-18 08:01:00,52.0,-99.9,-100.00,SE,132,0.0,3.0,0,0.00,,,0.00,42.000000,,2013-07-18 15:01:00,
2013-07-18 08:43:00,69.0,-99.9,-100.00,NNE,29,0.0,0.0,0,0.00,,,0.00,363.000000,,2013-07-18 15:43:00,
2013-07-18 08:53:00,69.0,-99.9,-100.00,NNE,29,0.0,0.0,0,0.00,,,0.00,363.000000,,2013-07-18 15:53:00,
2013-07-18 09:02:00,69.0,-99.9,-100.00,NNE,29,0.0,0.0,0,0.00,,,0.00,363.000000,,2013-07-18 16:02:00,
2013-07-18 09:32:00,75.0,-99.9,-100.00,NW,321,3.0,6.0,0,0.00,,,0.00,521.000000,,2013-07-18 16:32:00,
2013-07-18 09:42:00,75.0,-99.9,-100.00,NW,321,3.0,6.0,0,0.00,,,0.00,521.000000,,2013-07-18 16:42:00,
2013-07-18 09:52:00,75.0,-99.9,-100.00,NW,321,3.0,6.0,0,0.00,,,0.00,521.000000,,2013-07-18 16:52:00,
2013-07-18 10:02:00,75.0,-99.9,-100.00,NW,321,3.0,6.0,0,0.00,,,0.00,521.000000,,2013-07-18 17:02:00,
2013-07-18 10:33:00,75.0,-99.9,-100.00,NNE,21,3.0,9.0,0,0.00,,,0.00,433.000000,,2013-07-18 17:33:00,
2013-07-18 10:43:00,75.0,-99.9,-100.00,NNE,21,3.0,9.0,0,0.00,,,0.00,433.000000,,2013-07-18 17:43:00,
2013-07-18 10:52:00,75.0,-99.9,-100.00,NNE,21,3.0,9.0,0,0.00,,,0.00,433.000000,,2013-07-18 17:52:00,
2013-07-18 11:01:00,75.0,-99.9,-100.00,NNE,21,3.0,9.0,0,0.00,,,0.00,433.000000,,2013-07-18 18:01:00,
2013-07-18 11:33:00,79.0,-99.9,-100.00,ENE,63,7.0,14.0,0,0.00,,,0.00,774.000000,,2013-07-18 18:33:00,
2013-07-18 11:43:00,79.0,-99.9,-100.00,ENE,63,7.0,14.0,0,0.00,,,0.00,774.000000,,2013-07-18 18:43:00,
2013-07-18 11:52:00,79.0,-99.9,-100.00,ENE,63,7.0,14.0,0,0.00,,,0.00,774.000000,,2013-07-18 18:52:00,
2013-07-18 12:02:00,79.0,-99.9,-100.00,ENE,63,7.0,14.0,0,0.00,,,0.00,774.000000,,2013-07-18 19:02:00,
2013-07-18 12:32:00,79.0,-99.9,-100.00,SW,221,9.0,18.0,0,0.00,,,0.00,728.000000,,2013-07-18 19:32:00,
2013-07-18 12:43:00,79.0,-99.9,-100.00,SW,221,9.0,18.0,0,0.00,,,0.00,728.000000,,2013-07-18 19:43:00,
2013-07-18 12:53:00,79.0,-99.9,-100.00,SW,221,9.0,18.0,0,0.00,,,0.00,728.000000,,2013-07-18 19:53:00,
2013-07-18 13:02:00,79.0,-99.9,-100.00,SW,221,9.0,18.0,0,0.00,,,0.00,728.000000,,2013-07-18 20:02:00,
2013-07-18 13:32:00,77.0,-99.9,-100.00,East,91,7.0,18.0,0,0.00,,,0.00,592.000000,,2013-07-18 20:32:00,
2013-07-18 13:43:00,77.0,-99.9,-100.00,East,91,7.0,18.0,0,0.00,,,0.00,592.000000,,2013-07-18 20:43:00,
2013-07-18 13:52:00,77.0,-99.9,-100.00,East,91,7.0,18.0,0,0.00,,,0.00,592.000000,,2013-07-18 20:52:00,
2013-07-18 14:01:00,77.0,-99.9,-100.00,East,91,7.0,18.0,0,0.00,,,0.00,592.000000,,2013-07-18 21:01:00,
2013-07-18 14:32:00,81.0,-99.9,-100.00,East,87,7.0,17.0,0,0.00,,,0.00,597.000000,,2013-07-18 21:32:00,
2013-07-18 14:43:00,81.0,-99.9,-100.00,East,87,7.0,17.0,0,0.00,,,0.00,597.000000,,2013-07-18 21:43:00,
2013-07-18 14:52:00,81.0,-99.9,-100.00,East,87,7.0,17.0,0,0.00,,,0.00,597.000000,,2013-07-18 21:52:00,
2013-07-18 15:01:00,81.0,-99.9,-100.00,East,87,7.0,17.0,0,0.00,,,0.00,597.000000,,2013-07-18 22:01:00,
2013-07-18 15:32:00,81.0,-99.9,-100.00,ESE,116,6.0,16.0,0,0.00,,,0.00,677.000000,,2013-07-18 22:32:00,
2013-07-18 15:43:00,81.0,-99.9,-100.00,ESE,116,6.0,16.0,0,0.00,,,0.00,677.000000,,2013-07-18 22:43:00,
2013-07-18 15:53:00,81.0,-99.9,-100.00,ESE,116,6.0,16.0,0,0.00,,,0.00,677.000000,,2013-07-18 22:53:00,
2013-07-18 16:02:00,81.0,-99.9,-100.00,ESE,116,6.0,16.0,0,0.00,,,0.00,677.000000,,2013-07-18 23:02:00,
2013-07-18 16:32:00,77.0,-99.9,-100.00,NW,308,3.0,16.0,0,0.00,,,0.00,553.000000,,2013-07-18 23:32:00,
2013-07-18 16:42:00,77.0,-99.9,-100.00,NW,308,3.0,16.0,0,0.00,,,0.00,553.000000,,2013-07-18 23:42:00,
2013-07-18 16:52:00,77.0,-99.9,-100.00,NW,308,3.0,16.0,0,0.00,,,0.00,553.000000,,2013-07-18 23:52:00,
2013-07-18 17:01:00,77.0,-99.9,-100.00,NW,308,3.0,16.0,0,0.00,,,0.00,553.000000,,2013-07-19 00:01:00,
2013-07-18 17:32:00,78.0,-99.9,-100.00,North,1,1.0,11.0,0,0.00,,,0.00,284.000000,,2013-07-19 00:32:00,
2013-07-18 17:43:00,78.0,-99.9,-100.00,North,1,1.0,11.0,0,0.00,,,0.00,284.000000,,2013-07-19 00:43:00,
2013-07-18 17:52:00,78.0,-99.9,-100.00,North,1,1.0,11.0,0,0.00,,,0.00,284.000000,,2013-07-19 00:52:00,
2013-07-18 18:01:00,78.0,-99.9,-100.00,North,1,1.0,11.0,0,0.00,,,0.00,284.000000,,2013-07-19 01:01:00,
2013-07-18 18:32:00,75.0,-99.9,-100.00,NNE,23,2.0,7.0,0,0.00,,,0.00,101.000000,,2013-07-19 01:32:00,
2013-07-18 18:42:00,75.0,-99.9,-100.00,NNE,23,2.0,7.0,0,0.00,,,0.00,101.000000,,2013-07-19 01:42:00,
2013-07-18 18:52:00,75.0,-99.9,-100.00,NNE,23,2.0,7.0,0,0.00,,,0.00,101.000000,,2013-07-19 01:52:00,
2013-07-18 19:02:00,75.0,-99.9,-100.00,NNE,23,2.0,7.0,0,0.00,,,0.00,101.000000,,2013-07-19 02:02:00,
2013-07-18 19:32:00,72.0,-99.9,-100.00,NNW,327,1.0,8.0,0,0.00,,,0.00,24.000000,,2013-07-19 02:32:00,
2013-07-18 19:43:00,72.0,-99.9,-100.00,NNW,327,1.0,8.0,0,0.00,,,0.00,24.000000,,2013-07-19 02:43:00,
2013-07-18 19:52:00,72.0,-99.9,-100.00,NNW,327,1.0,8.0,0,0.00,,,0.00,24.000000,,2013-07-19 02:52:00,
2013-07-18 20:01:00,72.0,-99.9,-100.00,NNW,327,1.0,8.0,0,0.00,,,0.00,24.000000,,2013-07-19 03:01:00,
2013-07-18 20:32:00,66.0,-99.9,-100.00,North,1,1.0,6.0,0,0.00,,,0.00,1.000000,,2013-07-19 03:32:00,
2013-07-18 20:43:00,66.0,-99.9,-100.00,North,1,1.0,6.0,0,0.00,,,0.00,1.000000,,2013-07-19 03:43:00,
2013-07-18 20:52:00,66.0,-99.9,-100.00,North,1,1.0,6.0,0,0.00,,,0.00,1.000000,,2013-07-19 03:52:00,
2013-07-18 21:02:00,66.0,-99.9,-100.00,North,1,1.0,6.0,0,0.00,,,0.00,1.000000,,2013-07-19 04:02:00,
2013-07-18 21:33:00,61.0,-99.9,-100.00,SSE,149,0.0,5.0,0,0.00,,,0.00,0.000000,,2013-07-19 04:33:00,
2013-07-18 21:44:00,61.0,-99.9,-100.00,SSE,149,0.0,5.0,0,0.00,,,0.00,0.000000,,2013-07-19 04:44:00,
2013-07-18 21:52:00,61.0,-99.9,-100.00,SSE,149,0.0,5.0,0,0.00,,,0.00,0.000000,,2013-07-19 04:52:00,
2013-07-18 22:02:00,61.0,-99.9,-100.00,SSE,149,0.0,5.0,0,0.00,,,0.00,0.000000,,2013-07-19 05:02:00,
2013-07-18 22:32:00,60.0,-99.9,-100.00,SSE,159,0.0,4.0,0,0.00,,,0.00,0.000000,,2013-07-19 05:32:00,
2013-07-18 22:43:00,60.0,-99.9,-100.00,SSE,159,0.0,4.0,0,0.00,,,0.00,0.000000,,2013-07-19 05:43:00,
2013-07-18 22:53:00,60.0,-99.9,-100.00,SSE,159,0.0,4.0,0,0.00,,,0.00,0.000000,,2013-07-19 05:53:00,
2013-07-18 23:01:00,60.0,-99.9,-100.00,SSE,159,0.0,4.0,0,0.00,,,0.00,0.000000,,2013-07-19 06:01:00,
2013-07-18 23:33:00,64.0,-99.9,-100.00,SE,146,2.0,6.0,0,0.00,,,0.00,0.000000,,2013-07-19 06:33:00,
2013-07-18 23:43:00,64.0,-99.9,-100.00,SE,146,2.0,6.0,0,0.00,,,0.00,0.000000,,2013-07-19 06:43:00,
2013-07-18 23:53:00,64.0,-99.9,-100.00,SE,146,2.0,6.0,0,0.00,,,0.00,0.000000,,2013-07-19 06:53:00,